createdAt,value
2022-11-20T00:00:55.326Z,2.85
2022-11-20T00:03:23.256Z,2.82
2022-11-20T00:05:51.185Z,2.81
2022-11-20T00:08:19.081Z,2.79
2022-11-20T00:10:46.873Z,2.80
2022-11-20T00:13:14.537Z,2.80
2022-11-20T00:15:42.154Z,2.78
2022-11-20T00:18:11.544Z,2.89
2022-11-20T00:20:39.642Z,2.86
2022-11-20T00:23:07.884Z,2.92
2022-11-20T00:25:36.425Z,2.91
2022-11-20T00:28:04.290Z,2.89
2022-11-20T00:30:32.061Z,2.87
2022-11-20T00:32:59.858Z,3.12
2022-11-20T00:35:29.038Z,2.94
2022-11-20T00:37:56.644Z,3.02
2022-11-20T00:40:24.426Z,2.95
2022-11-20T00:42:52.418Z,2.92
2022-11-20T00:45:20.106Z,3.02
2022-11-20T00:47:48.045Z,2.96
2022-11-20T00:50:15.781Z,2.89
2022-11-20T00:52:44.910Z,2.92
2022-11-20T00:55:12.675Z,2.85
2022-11-20T00:57:40.390Z,2.88
2022-11-20T01:00:09.168Z,2.87
2022-11-20T01:02:36.784Z,2.89
2022-11-20T01:05:04.690Z,2.94
2022-11-20T01:07:32.351Z,2.99
2022-11-20T01:10:01.368Z,3.03
2022-11-20T01:12:29.028Z,3.04
2022-11-20T01:14:56.811Z,2.90
2022-11-20T01:17:24.442Z,2.82
2022-11-20T01:19:52.324Z,2.83
2022-11-20T01:22:20.399Z,2.85
2022-11-20T01:24:48.083Z,2.83
2022-11-20T01:27:17.145Z,2.83
2022-11-20T01:29:44.857Z,2.88
2022-11-20T01:32:12.502Z,2.90
2022-11-20T01:34:40.324Z,2.93
2022-11-20T01:37:07.982Z,2.95
2022-11-20T01:39:35.810Z,2.85
2022-11-20T01:42:20.954Z,2.84
2022-11-20T01:44:56.420Z,2.82
2022-11-20T01:47:31.254Z,2.83
2022-11-20T01:50:03.775Z,2.89
2022-11-20T01:52:36.793Z,2.85
2022-11-20T01:55:09.535Z,2.82
2022-11-20T01:57:38.036Z,2.82
2022-11-20T02:00:09.699Z,2.81
2022-11-20T02:02:48.429Z,2.76
2022-11-20T02:05:22.099Z,2.77
2022-11-20T02:07:50.523Z,2.75
2022-11-20T02:10:18.734Z,2.78
2022-11-20T02:13:04.152Z,2.80
2022-11-20T02:15:36.212Z,2.84
2022-11-20T02:18:04.130Z,2.78
2022-11-20T02:20:31.904Z,2.78
2022-11-20T02:23:04.984Z,2.85
2022-11-20T02:25:37.040Z,2.85
2022-11-20T02:28:05.607Z,2.85
2022-11-20T02:30:33.638Z,2.82
2022-11-20T02:33:01.371Z,2.79
2022-11-20T02:35:43.535Z,2.74
2022-11-20T02:38:11.945Z,2.69
2022-11-20T02:40:41.291Z,2.71
2022-11-20T02:43:10.521Z,2.72
2022-11-20T02:45:38.551Z,2.80
2022-11-20T02:48:08.133Z,2.83
2022-11-20T02:50:38.138Z,2.79
2022-11-20T02:53:06.042Z,2.77
2022-11-20T02:55:33.997Z,2.78
2022-11-20T02:58:03.057Z,2.82
2022-11-20T03:00:31.661Z,2.83
2022-11-20T03:02:59.454Z,2.86
2022-11-20T03:05:27.168Z,2.81
2022-11-20T03:07:54.871Z,2.82
2022-11-20T03:10:22.689Z,2.81
2022-11-20T03:12:55.202Z,2.87
2022-11-20T03:15:24.291Z,2.85
2022-11-20T03:17:55.549Z,2.89
2022-11-20T03:20:23.628Z,2.87
2022-11-20T03:22:51.384Z,2.86
2022-11-20T03:25:19.093Z,2.85
2022-11-20T03:27:46.758Z,2.92
2022-11-20T03:30:15.412Z,2.93
2022-11-20T03:32:45.269Z,2.91
2022-11-20T03:35:13.052Z,3.02
2022-11-20T03:37:40.742Z,2.86
2022-11-20T03:40:09.262Z,2.85
2022-11-20T03:42:48.840Z,2.83
2022-11-20T03:45:17.865Z,2.87
2022-11-20T03:47:48.218Z,2.91
2022-11-20T03:50:16.111Z,2.86
2022-11-20T03:52:44.116Z,2.83
2022-11-20T03:55:11.863Z,2.86
2022-11-20T03:57:39.549Z,2.80
2022-11-20T04:00:08.578Z,2.87
2022-11-20T04:02:36.306Z,2.79
2022-11-20T04:05:05.812Z,2.81
2022-11-20T04:07:35.598Z,2.85
2022-11-20T04:10:03.699Z,2.97
2022-11-20T04:12:34.164Z,2.88
2022-11-20T04:15:01.920Z,2.85
2022-11-20T04:17:29.549Z,2.88
2022-11-20T04:19:57.165Z,2.93
2022-11-20T04:22:27.213Z,2.96
2022-11-20T04:24:54.887Z,2.91
2022-11-20T04:27:22.897Z,2.86
2022-11-20T04:29:50.500Z,2.75
2022-11-20T04:32:18.120Z,2.80
2022-11-20T04:34:45.705Z,2.85
2022-11-20T04:37:13.412Z,2.85
2022-11-20T04:39:42.666Z,2.86
2022-11-20T04:42:28.352Z,2.92
2022-11-20T04:44:56.786Z,2.98
2022-11-20T04:47:24.526Z,2.89
2022-11-20T04:49:52.338Z,2.98
2022-11-20T04:52:20.063Z,2.99
2022-11-20T04:54:48.993Z,2.96
2022-11-20T04:57:17.131Z,2.97
2022-11-20T04:59:44.815Z,2.93
2022-11-20T05:02:13.875Z,2.93
2022-11-20T05:04:41.577Z,3.01
2022-11-20T05:07:09.241Z,2.97
2022-11-20T05:09:37.082Z,2.87
2022-11-20T05:12:06.627Z,2.90
2022-11-20T05:14:34.269Z,2.91
2022-11-20T05:17:01.986Z,2.92
2022-11-20T05:19:29.606Z,2.90
2022-11-20T05:21:57.216Z,2.93
2022-11-20T05:24:25.008Z,2.98
2022-11-20T05:26:52.689Z,2.95
2022-11-20T05:29:21.922Z,2.97
2022-11-20T05:31:50.209Z,2.96
2022-11-20T05:34:17.944Z,2.98
2022-11-20T05:36:45.525Z,2.97
2022-11-20T05:39:13.186Z,2.93
2022-11-20T05:41:40.818Z,2.91
2022-11-20T05:44:08.518Z,2.91
2022-11-20T05:46:37.574Z,2.92
2022-11-20T05:49:05.210Z,2.92
2022-11-20T05:51:32.791Z,2.96
2022-11-20T05:54:00.529Z,2.99
2022-11-20T05:56:28.128Z,3.03
2022-11-20T05:58:55.766Z,3.02
2022-11-20T06:01:25.660Z,3.05
2022-11-20T06:03:55.320Z,3.00
2022-11-20T06:06:23.075Z,3.00
2022-11-20T06:08:51.100Z,2.95
2022-11-20T06:11:19.342Z,3.00
2022-11-20T06:13:47.981Z,2.98
2022-11-20T06:16:18.062Z,3.00
2022-11-20T06:18:45.884Z,2.99
2022-11-20T06:21:16.742Z,3.03
2022-11-20T06:23:46.120Z,2.99
2022-11-20T06:26:16.282Z,3.09
2022-11-20T06:28:44.118Z,3.09
2022-11-20T06:31:14.455Z,3.01
2022-11-20T06:33:42.442Z,3.04
2022-11-20T06:36:12.280Z,2.99
2022-11-20T06:38:42.070Z,3.02
2022-11-20T06:41:13.688Z,3.00
2022-11-20T06:43:41.865Z,2.94
2022-11-20T06:46:11.549Z,3.00
2022-11-20T06:48:39.485Z,2.96
2022-11-20T06:51:08.515Z,2.98
2022-11-20T06:53:36.985Z,3.00
2022-11-20T06:56:06.606Z,3.04
2022-11-20T06:58:36.149Z,3.10
2022-11-20T07:01:05.642Z,3.11
2022-11-20T07:03:33.416Z,3.01
2022-11-20T07:06:02.604Z,2.98
2022-11-20T07:08:30.598Z,3.10
2022-11-20T07:11:01.643Z,3.10
2022-11-20T07:13:31.109Z,3.13
2022-11-20T07:16:02.366Z,3.16
2022-11-20T07:18:30.315Z,3.17
2022-11-20T07:20:58.134Z,3.15
2022-11-20T07:23:25.784Z,3.19
2022-11-20T07:25:53.360Z,3.14
2022-11-20T07:28:21.041Z,3.15
2022-11-20T07:30:52.996Z,3.19
2022-11-20T07:33:21.292Z,3.24
2022-11-20T07:35:48.950Z,3.25
2022-11-20T07:38:17.013Z,3.23
2022-11-20T07:40:44.808Z,3.28
2022-11-20T07:43:12.408Z,3.33
2022-11-20T07:45:39.971Z,3.40
2022-11-20T07:48:08.996Z,3.31
2022-11-20T07:50:37.034Z,3.35
2022-11-20T07:53:06.069Z,3.37
2022-11-20T07:55:34.480Z,3.35
2022-11-20T07:58:02.076Z,3.39
2022-11-20T08:00:30.203Z,3.33
2022-11-20T08:02:57.873Z,3.27
2022-11-20T08:05:27.049Z,3.32
2022-11-20T08:07:54.606Z,3.25
2022-11-20T08:10:22.198Z,3.34
2022-11-20T08:13:09.114Z,3.40
2022-11-20T08:15:37.662Z,3.39
2022-11-20T08:20:56.550Z,3.55
2022-11-20T08:23:24.732Z,3.47
2022-11-20T08:25:52.889Z,3.49
2022-11-20T08:28:22.105Z,3.44
2022-11-20T08:30:50.829Z,3.45
2022-11-20T08:33:19.323Z,3.44
2022-11-20T08:35:47.536Z,3.54
2022-11-20T08:38:16.649Z,3.64
2022-11-20T08:41:05.146Z,3.60
2022-11-20T08:43:32.797Z,3.53
2022-11-20T08:46:00.505Z,3.45
2022-11-20T08:48:29.274Z,3.44
2022-11-20T08:51:00.369Z,3.54
2022-11-20T08:53:30.338Z,3.62
2022-11-20T08:55:59.141Z,3.64
2022-11-20T08:58:27.451Z,3.62
2022-11-20T09:00:55.677Z,3.66
2022-11-20T09:03:27.430Z,3.56
2022-11-20T09:06:01.873Z,3.52
2022-11-20T09:08:31.396Z,3.49
2022-11-20T09:10:59.988Z,3.52
2022-11-20T09:13:29.388Z,3.60
2022-11-20T09:15:58.549Z,3.64
2022-11-20T09:18:26.594Z,3.55
2022-11-20T09:20:58.472Z,3.60
2022-11-20T09:23:26.950Z,3.69
2022-11-20T09:26:00.484Z,3.59
2022-11-20T09:28:28.292Z,3.64
2022-11-20T09:30:56.225Z,3.69
2022-11-20T09:33:24.006Z,3.70
2022-11-20T09:35:51.653Z,3.75
2022-11-20T09:38:19.828Z,3.75
2022-11-20T09:40:56.828Z,3.77
2022-11-20T09:43:42.485Z,3.76
2022-11-20T09:46:19.278Z,3.83
2022-11-20T09:49:11.929Z,3.89
2022-11-20T09:51:48.346Z,3.93
2022-11-20T09:54:19.737Z,3.91
2022-11-20T09:56:51.953Z,3.77
2022-11-20T09:59:38.162Z,3.90
2022-11-20T10:02:17.670Z,3.97
2022-11-20T10:04:51.525Z,3.94
2022-11-20T10:07:33.439Z,4.02
2022-11-20T10:10:01.894Z,3.91
2022-11-20T10:12:39.634Z,3.98
2022-11-20T10:15:32.495Z,3.84
2022-11-20T10:18:11.402Z,3.75
2022-11-20T10:20:48.283Z,3.86
2022-11-20T10:23:38.866Z,3.92
2022-11-20T10:26:19.237Z,4.08
2022-11-20T10:29:04.735Z,4.16
2022-11-20T10:31:39.201Z,4.23
2022-11-20T10:34:15.945Z,4.27
2022-11-20T10:36:52.804Z,4.33
2022-11-20T10:39:27.891Z,4.39
2022-11-20T10:41:55.613Z,4.42
2022-11-20T10:44:41.478Z,4.54
2022-11-20T10:47:16.531Z,4.59
2022-11-20T10:49:46.894Z,4.64
2022-11-20T10:52:23.576Z,4.62
2022-11-20T10:55:01.270Z,4.55
2022-11-20T10:57:53.879Z,4.67
2022-11-20T11:00:21.753Z,4.75
2022-11-20T11:02:52.610Z,4.78
2022-11-20T11:05:32.630Z,4.82
2022-11-20T11:08:01.177Z,4.82
2022-11-20T11:10:38.304Z,4.82
2022-11-20T11:13:06.018Z,4.85
2022-11-20T11:15:41.684Z,4.94
2022-11-20T11:18:12.427Z,5.03
2022-11-20T11:20:40.741Z,5.15
2022-11-20T11:23:30.678Z,5.16
2022-11-20T11:26:00.521Z,5.22
2022-11-20T11:28:29.939Z,5.48
2022-11-20T11:30:57.948Z,5.54
2022-11-20T11:33:29.099Z,5.54
2022-11-20T11:35:59.166Z,5.54
2022-11-20T11:38:33.287Z,5.58
2022-11-20T11:41:01.173Z,5.74
2022-11-20T11:43:49.535Z,5.90
2022-11-20T11:46:33.450Z,5.84
2022-11-20T11:49:14.566Z,5.81
2022-11-20T11:51:55.465Z,5.72
2022-11-20T11:54:27.532Z,5.79
2022-11-20T11:56:55.904Z,5.77
2022-11-20T11:59:29.860Z,5.77
2022-11-20T12:02:02.570Z,5.75
2022-11-20T12:04:44.081Z,5.69
2022-11-20T12:07:45.107Z,5.72
2022-11-20T12:10:08.142Z,5.65
2022-11-20T12:12:43.651Z,5.66
2022-11-20T12:15:14.388Z,5.65
2022-11-20T12:17:42.558Z,5.70
2022-11-20T12:20:16.511Z,5.77
2022-11-20T12:22:55.497Z,5.89
2022-11-20T12:25:26.664Z,5.91
2022-11-20T12:28:17.446Z,5.92
2022-11-20T12:30:54.350Z,6.00
2022-11-20T12:33:45.661Z,6.02
2022-11-20T12:36:26.002Z,6.07
2022-11-20T12:39:05.123Z,6.07
2022-11-20T12:42:17.906Z,6.07
2022-11-20T12:45:13.195Z,6.11
2022-11-20T12:47:56.795Z,6.11
2022-11-20T12:50:53.412Z,6.18
2022-11-20T12:53:36.778Z,6.18
2022-11-20T12:56:16.565Z,6.20
2022-11-20T12:58:54.662Z,6.24
2022-11-20T13:01:43.623Z,6.28
2022-11-20T13:04:48.748Z,6.30
2022-11-20T13:07:19.442Z,6.35
2022-11-20T13:09:52.087Z,6.38
2022-11-20T13:12:25.157Z,6.43
2022-11-20T13:15:00.095Z,6.34
2022-11-20T13:17:35.950Z,6.32
2022-11-20T13:20:08.158Z,6.35
2022-11-20T13:22:46.134Z,6.47
2022-11-20T13:25:26.348Z,6.54
2022-11-20T13:27:54.965Z,6.64
2022-11-20T13:30:25.060Z,6.65
2022-11-20T13:32:55.308Z,6.66
2022-11-20T13:35:29.414Z,6.76
2022-11-20T13:38:09.408Z,6.84
2022-11-20T13:40:41.550Z,6.91
2022-11-20T13:43:25.594Z,7.03
2022-11-20T13:46:01.021Z,7.04
2022-11-20T13:48:33.347Z,7.01
2022-11-20T13:51:13.269Z,7.01
2022-11-20T13:53:58.876Z,7.04
2022-11-20T13:56:42.751Z,7.17
2022-11-20T13:59:26.314Z,7.21
2022-11-20T14:01:58.355Z,7.20
2022-11-20T14:04:32.930Z,7.25
2022-11-20T14:07:02.633Z,7.30
2022-11-20T14:09:32.951Z,7.33
2022-11-20T14:12:04.832Z,7.34
2022-11-20T14:14:37.534Z,7.28
2022-11-20T14:17:10.679Z,7.27
2022-11-20T14:19:41.178Z,7.20
2022-11-20T14:22:12.853Z,7.16
2022-11-20T14:24:43.472Z,7.11
2022-11-20T14:27:18.965Z,7.06
2022-11-20T14:29:52.768Z,7.01
2022-11-20T14:32:24.284Z,7.01
2022-11-20T14:34:54.515Z,7.00
2022-11-20T14:37:27.478Z,6.96
2022-11-20T14:39:59.958Z,6.92
2022-11-20T14:42:31.750Z,6.93
2022-11-20T14:45:01.108Z,6.92
2022-11-20T14:47:33.013Z,6.88
2022-11-20T14:50:08.634Z,6.87
2022-11-20T14:52:37.764Z,6.85
2022-11-20T14:55:06.982Z,6.82
2022-11-20T14:57:38.331Z,6.81
2022-11-20T15:00:10.050Z,6.79
2022-11-20T15:02:42.217Z,6.75
2022-11-20T15:05:10.684Z,6.70
2022-11-20T15:07:48.386Z,6.62
2022-11-20T15:10:25.029Z,6.50
2022-11-20T15:12:56.772Z,6.42
2022-11-20T15:15:32.089Z,6.42
2022-11-20T15:18:00.943Z,6.43
2022-11-20T15:20:32.932Z,6.42
2022-11-20T15:23:00.885Z,6.38
2022-11-20T15:25:29.274Z,6.33
2022-11-20T15:27:59.497Z,6.31
2022-11-20T15:30:27.947Z,6.23
2022-11-20T15:32:56.730Z,6.22
2022-11-20T15:35:24.557Z,6.17
2022-11-20T15:37:52.357Z,6.15
2022-11-20T15:40:20.079Z,6.13
2022-11-20T15:43:01.748Z,6.11
2022-11-20T15:45:35.479Z,6.11
2022-11-20T15:48:03.524Z,6.14
2022-11-20T15:50:38.122Z,6.16
2022-11-20T15:53:06.449Z,6.19
2022-11-20T15:55:34.576Z,6.23
2022-11-20T15:58:02.382Z,6.26
2022-11-20T16:00:32.540Z,6.30
2022-11-20T16:03:00.366Z,6.32
2022-11-20T16:05:30.318Z,6.34
2022-11-20T16:07:58.220Z,6.40
2022-11-20T16:10:25.996Z,6.40
2022-11-20T16:13:11.476Z,6.42
2022-11-20T16:15:49.900Z,6.44
2022-11-20T16:18:20.196Z,6.43
2022-11-20T16:20:50.886Z,6.43
2022-11-20T16:23:19.182Z,6.43
2022-11-20T16:25:47.071Z,6.43
2022-11-20T16:28:18.909Z,6.46
2022-11-20T16:30:48.594Z,6.46
2022-11-20T16:33:18.048Z,6.45
2022-11-20T16:35:46.020Z,6.45
2022-11-20T16:38:13.674Z,6.43
2022-11-20T16:40:41.339Z,6.42
2022-11-20T16:43:11.866Z,6.39
2022-11-20T16:45:43.895Z,6.40
2022-11-20T16:48:16.210Z,6.44
2022-11-20T16:50:49.227Z,6.45
2022-11-20T16:53:17.141Z,6.42
2022-11-20T16:55:44.886Z,6.42
2022-11-20T16:58:12.872Z,6.42
2022-11-20T17:00:43.616Z,6.42
2022-11-20T17:03:17.798Z,6.42
2022-11-20T17:05:45.653Z,6.42
2022-11-20T17:08:13.281Z,6.37
2022-11-20T17:10:41.181Z,6.37
2022-11-20T17:13:08.888Z,6.34
2022-11-20T17:15:36.663Z,6.32
2022-11-20T17:18:04.410Z,6.34
2022-11-20T17:20:33.475Z,6.38
2022-11-20T17:23:01.221Z,6.35
2022-11-20T17:25:28.822Z,6.33
2022-11-20T17:27:56.582Z,6.32
2022-11-20T17:30:24.969Z,6.30
2022-11-20T17:32:52.620Z,6.32
2022-11-20T17:35:20.292Z,6.34
2022-11-20T17:37:49.258Z,6.34
2022-11-20T17:40:17.181Z,6.35
2022-11-20T17:42:44.953Z,6.32
2022-11-20T17:45:12.642Z,6.35
2022-11-20T17:47:40.278Z,6.39
2022-11-20T17:50:09.021Z,6.41
2022-11-20T17:52:36.723Z,6.39
2022-11-20T17:55:06.851Z,6.35
2022-11-20T17:57:52.033Z,6.31
2022-11-20T18:00:20.408Z,6.29
2022-11-20T18:02:48.021Z,6.30
2022-11-20T18:05:16.037Z,6.36
2022-11-20T18:07:43.951Z,6.28
2022-11-20T18:10:13.397Z,6.32
2022-11-20T18:12:41.068Z,6.34
2022-11-20T18:15:09.313Z,6.43
2022-11-20T18:17:37.033Z,6.35
2022-11-20T18:20:27.990Z,6.36
2022-11-20T18:22:53.130Z,6.35
2022-11-20T18:25:22.172Z,6.38
2022-11-20T18:27:49.928Z,6.40
2022-11-20T18:30:17.752Z,6.43
2022-11-20T18:32:45.500Z,6.47
2022-11-20T18:35:13.369Z,6.47
2022-11-20T18:37:41.242Z,6.44
2022-11-20T18:40:10.664Z,6.41
2022-11-20T18:42:57.381Z,6.47
2022-11-20T18:45:25.109Z,6.41
2022-11-20T18:47:52.812Z,6.40
2022-11-20T18:50:20.505Z,6.38
2022-11-20T18:52:48.174Z,6.42
2022-11-20T18:55:15.904Z,6.62
2022-11-20T18:57:44.925Z,6.56
2022-11-20T19:00:13.995Z,6.56
2022-11-20T19:02:43.283Z,6.57
2022-11-20T19:05:12.056Z,6.53
2022-11-20T19:07:40.112Z,6.47
2022-11-20T19:10:09.146Z,6.39
2022-11-20T19:12:37.092Z,6.39
2022-11-20T19:15:07.052Z,6.38
2022-11-20T19:17:35.260Z,6.33
2022-11-20T19:20:03.435Z,6.41
2022-11-20T19:22:31.153Z,6.44
2022-11-20T19:24:58.934Z,6.40
2022-11-20T19:27:26.676Z,6.41
2022-11-20T19:29:58.727Z,6.45
2022-11-20T19:32:27.829Z,6.43
2022-11-20T19:34:55.502Z,6.49
2022-11-20T19:37:25.149Z,6.53
2022-11-20T19:39:52.958Z,6.44
2022-11-20T19:42:20.702Z,6.39
2022-11-20T19:44:48.321Z,6.43
2022-11-20T19:47:16.221Z,6.34
2022-11-20T19:49:45.286Z,6.34
2022-11-20T19:52:12.955Z,6.35
2022-11-20T19:54:41.165Z,6.30
2022-11-20T19:57:08.826Z,6.43
2022-11-20T19:59:36.562Z,6.33
2022-11-20T20:02:04.306Z,6.25
2022-11-20T20:04:32.982Z,6.25
2022-11-20T20:07:03.893Z,6.21
2022-11-20T20:09:34.179Z,6.20
2022-11-20T20:12:01.971Z,6.15
2022-11-20T20:14:29.837Z,6.18
2022-11-20T20:16:57.782Z,6.12
2022-11-20T20:19:25.923Z,6.06
2022-11-20T20:21:53.901Z,6.06
2022-11-20T20:24:22.943Z,6.14
2022-11-20T20:26:53.285Z,6.08
2022-11-20T20:29:25.067Z,6.09
2022-11-20T20:31:53.172Z,5.98
2022-11-20T20:34:20.856Z,6.00
2022-11-20T20:36:48.696Z,6.04
2022-11-20T20:39:16.581Z,6.06
2022-11-20T20:41:45.702Z,6.02
2022-11-20T20:44:30.907Z,5.98
2022-11-20T20:46:58.633Z,5.89
2022-11-20T20:49:26.785Z,5.81
2022-11-20T20:51:54.797Z,5.75
2022-11-20T20:54:22.717Z,5.70
2022-11-20T20:56:53.186Z,5.63
2022-11-20T20:59:21.300Z,5.59
2022-11-20T21:01:49.319Z,5.53
2022-11-20T21:04:17.009Z,5.46
2022-11-20T21:06:44.624Z,5.45
2022-11-20T21:09:12.504Z,5.49
2022-11-20T21:11:40.867Z,5.52
2022-11-20T21:14:10.057Z,5.55
2022-11-20T21:16:43.714Z,5.55
2022-11-20T21:19:11.637Z,5.57
2022-11-20T21:21:57.339Z,5.61
2022-11-20T21:24:25.368Z,5.56
2022-11-20T21:26:53.624Z,5.51
2022-11-20T21:29:24.071Z,5.49
2022-11-20T21:31:54.045Z,5.50
2022-11-20T21:34:23.140Z,5.48
2022-11-20T21:36:51.636Z,5.48
2022-11-20T21:39:20.372Z,5.43
2022-11-20T21:41:48.722Z,5.50
2022-11-20T21:44:30.972Z,5.56
2022-11-20T21:47:01.103Z,5.54
2022-11-20T21:49:29.208Z,5.52
2022-11-20T21:51:57.032Z,5.57
2022-11-20T21:54:24.930Z,5.65
2022-11-20T21:56:52.993Z,5.66
2022-11-20T21:59:20.634Z,5.75
2022-11-20T22:01:48.557Z,5.90
2022-11-20T22:04:17.650Z,6.00
2022-11-20T22:06:45.454Z,6.03
2022-11-20T22:09:13.736Z,6.03
2022-11-20T22:11:41.463Z,6.06
2022-11-20T22:14:24.357Z,6.16
2022-11-20T22:16:54.385Z,6.22
2022-11-20T22:19:24.415Z,6.17
2022-11-20T22:21:54.343Z,6.12
2022-11-20T22:24:23.843Z,6.14
2022-11-20T22:26:51.866Z,6.20
2022-11-20T22:29:21.832Z,6.24
2022-11-20T22:31:52.070Z,6.22
2022-11-20T22:34:20.106Z,6.23
2022-11-20T22:36:49.428Z,6.22
2022-11-20T22:39:17.531Z,6.23
2022-11-20T22:41:45.259Z,6.29
2022-11-20T22:44:19.150Z,6.32
2022-11-20T22:46:47.120Z,6.38
2022-11-20T22:49:14.868Z,6.40
2022-11-20T22:51:43.327Z,6.42
2022-11-20T22:54:13.403Z,6.42
2022-11-20T22:56:41.681Z,6.44
2022-11-20T22:59:10.182Z,6.44
2022-11-20T23:01:39.129Z,6.44
2022-11-20T23:04:09.123Z,6.47
2022-11-20T23:06:37.171Z,6.46
2022-11-20T23:09:06.889Z,6.44
2022-11-20T23:11:36.801Z,6.45
2022-11-20T23:14:06.470Z,6.46
2022-11-20T23:16:35.638Z,6.47
2022-11-20T23:19:05.993Z,6.45
2022-11-20T23:21:35.069Z,6.46
2022-11-20T23:24:03.143Z,6.49
2022-11-20T23:26:32.475Z,6.48
2022-11-20T23:29:02.291Z,6.58
2022-11-20T23:31:31.847Z,6.62
2022-11-20T23:34:00.273Z,6.64
2022-11-20T23:36:28.451Z,6.61
2022-11-20T23:38:56.154Z,6.61
2022-11-20T23:41:23.926Z,6.63
2022-11-20T23:43:51.773Z,6.71
2022-11-20T23:46:20.915Z,6.69
2022-11-20T23:48:48.643Z,6.72
2022-11-20T23:51:16.665Z,6.71
2022-11-20T23:53:44.425Z,6.71
2022-11-20T23:56:14.188Z,6.76
2022-11-20T23:58:42.193Z,6.75
